Time;durP1;ratioP1;P1;durP2;ratioP2;P2;SDS_P1;SDS_P2;PMS_P1;PMS_P2;Temp;Humidity;BMP_temperature;BMP_pressure;BME280_temperature;BME280_humidity;BME280_pressure;Samples;Min_cycle;Max_cycle;Signal;HPM_P1;HPM_P2
2022/01/22 00:02:06;;;;;;;6.30;3.03;;;;;;;-0.45;100.00;97774.22;5054248;28;20220;-84
2022/01/22 00:04:34;;;;;;;4.57;2.77;;;;;;;-0.49;100.00;97771.94;5057534;28;20217;-84
2022/01/22 00:07:02;;;;;;;5.33;2.73;;;;;;;-0.49;100.00;97766.63;5041809;28;20229;-84
2022/01/22 00:09:38;;;;;;;3.23;2.40;;;;;;;-0.51;100.00;97772.06;5054795;28;20237;-82
2022/01/22 00:12:07;;;;;;;7.03;2.43;;;;;;;-0.46;100.00;97769.03;5040396;28;20286;-84
2022/01/22 00:14:34;;;;;;;3.57;2.30;;;;;;;-0.48;100.00;97765.66;5050609;28;20204;-83
2022/01/22 00:17:02;;;;;;;3.33;2.40;;;;;;;-0.45;100.00;97781.34;5060849;28;20197;-82
2022/01/22 00:19:29;;;;;;;5.43;2.87;;;;;;;-0.48;100.00;97763.00;5060169;28;20269;-82
2022/01/22 00:21:58;;;;;;;4.97;2.47;;;;;;;-0.48;100.00;97770.97;5043908;28;20208;-84
2022/01/22 00:24:25;;;;;;;5.77;2.20;;;;;;;-0.48;100.00;97776.28;5058975;28;20205;-83
2022/01/22 00:26:53;;;;;;;4.93;2.53;;;;;;;-0.49;100.00;97785.19;5059675;28;20260;-83
2022/01/22 00:29:20;;;;;;;5.70;2.43;;;;;;;-0.51;100.00;97792.47;5045491;28;20210;-83
2022/01/22 00:31:48;;;;;;;4.77;2.70;;;;;;;-0.54;100.00;97776.78;5046233;28;20343;-84
2022/01/22 00:34:15;;;;;;;4.13;2.40;;;;;;;-0.55;100.00;97775.94;5050220;28;20214;-83
2022/01/22 00:36:42;;;;;;;3.87;2.33;;;;;;;-0.55;100.00;97783.91;5044196;28;20205;-84
2022/01/22 00:39:09;;;;;;;5.33;2.50;;;;;;;-0.58;100.00;97780.66;5047717;28;20255;-85
2022/01/22 00:41:36;;;;;;;4.37;2.43;;;;;;;-0.58;100.00;97775.34;5059324;28;20218;-82
2022/01/22 00:44:05;;;;;;;3.77;2.50;;;;;;;-0.60;100.00;97786.09;5035102;28;20214;-83
2022/01/22 00:46:33;;;;;;;4.37;2.27;;;;;;;-0.64;100.00;97789.13;5043446;28;20225;-82
2022/01/22 00:49:00;;;;;;;6.40;2.53;;;;;;;-0.69;100.00;97778.06;5061319;28;20259;-84
2022/01/22 00:51:27;;;;;;;7.03;2.57;;;;;;;-0.73;100.00;97777.44;5039952;28;20205;-84
2022/01/22 00:53:54;;;;;;;4.97;2.50;;;;;;;-0.78;100.00;97769.88;5054102;28;20213;-83
2022/01/22 00:56:21;;;;;;;3.37;2.20;;;;;;;-0.80;100.00;97777.13;5040821;28;20236;-84
2022/01/22 00:58:49;;;;;;;3.33;2.30;;;;;;;-0.77;100.00;97774.19;5056831;28;20195;-83
2022/01/22 01:01:19;;;;;;;2.57;2.20;;;;;;;-0.76;100.00;97775.03;5046317;28;20205;-82
2022/01/22 01:03:48;;;;;;;3.87;2.17;;;;;;;-0.74;100.00;97766.97;5059155;28;20203;-84
2022/01/22 01:06:15;;;;;;;3.83;2.40;;;;;;;-0.79;100.00;97770.84;5057499;28;20226;-85
2022/01/22 01:08:43;;;;;;;4.77;2.30;;;;;;;-0.80;100.00;97773.63;5032946;28;20221;-83
2022/01/22 01:11:12;;;;;;;5.20;2.77;;;;;;;-0.86;100.00;97768.81;5037573;28;20248;-83
2022/01/22 01:13:44;;;;;;;6.00;3.10;;;;;;;-0.93;100.00;97775.56;5059194;28;20292;-82
2022/01/22 01:16:22;;;;;;;6.27;3.17;;;;;;;-1.04;100.00;97781.75;5061792;28;20236;-83
2022/01/22 01:32:43;;;;;;;3.93;2.60;;;;;;;-1.27;100.00;97790.69;5064456;28;20290;-84
2022/01/22 01:35:12;;;;;;;4.63;3.00;;;;;;;-1.22;100.00;97788.53;5059429;28;20290;-83
2022/01/22 01:37:39;;;;;;;5.77;2.50;;;;;;;-1.19;100.00;97790.91;5054359;28;20209;-84
2022/01/22 01:40:09;;;;;;;4.80;2.47;;;;;;;-1.19;100.00;97793.56;5060816;28;20220;-83
2022/01/22 01:42:44;;;;;;;4.80;2.40;;;;;;;-1.19;100.00;97782.97;5043354;28;20219;-84
2022/01/22 01:45:12;;;;;;;5.20;2.60;;;;;;;-1.16;100.00;97788.03;5051362;28;20213;-81
2022/01/22 01:47:46;;;;;;;3.70;2.27;;;;;;;-1.17;100.00;97795.13;5042436;28;20232;-83
2022/01/22 01:50:15;;;;;;;4.50;2.20;;;;;;;-1.19;100.00;97782.97;5057568;28;20233;-83
2022/01/22 01:52:47;;;;;;;4.33;2.40;;;;;;;-1.29;100.00;97782.88;5056422;28;20193;-83
2022/01/22 01:55:19;;;;;;;5.37;2.50;;;;;;;-1.38;100.00;97788.06;5033979;28;20212;-84
2022/01/22 01:57:46;;;;;;;4.47;2.67;;;;;;;-1.47;100.00;97784.31;5067845;28;20262;-82
2022/01/22 02:00:22;;;;;;;5.57;2.80;;;;;;;-1.53;100.00;97780.31;5043126;28;20216;-83
2022/01/22 02:02:54;;;;;;;7.30;2.60;;;;;;;-1.56;100.00;97769.16;5058348;28;20208;-86
2022/01/22 02:05:26;;;;;;;5.73;3.10;;;;;;;-1.66;100.00;97769.03;5042819;28;20204;-82
2022/01/22 02:07:58;;;;;;;8.43;3.17;;;;;;;-1.69;100.00;97773.72;5039994;28;20221;-82
2022/01/22 02:10:36;;;;;;;4.77;2.97;;;;;;;-1.69;100.00;97773.72;5044282;28;20317;-83
2022/01/22 02:24:21;;;;;;;4.17;2.50;;;;;;;-1.65;100.00;97767.22;5056838;28;20205;-82
2022/01/22 02:26:50;;;;;;;4.40;2.57;;;;;;;-1.66;100.00;97771.69;5042117;28;20217;-83
2022/01/22 02:29:24;;;;;;;3.63;2.43;;;;;;;-1.66;100.00;97769.03;5058308;28;20213;-83
2022/01/22 02:32:45;;;;;;;4.77;2.27;;;;;;;-1.67;100.00;97766.50;5068985;28;20212;-83
2022/01/22 02:35:18;;;;;;;4.20;2.40;;;;;;;-1.66;100.00;97765.53;5040752;28;20213;-82
2022/01/22 02:37:52;;;;;;;4.10;2.57;;;;;;;-1.60;100.00;97765.03;5065607;28;20260;-82
2022/01/22 02:40:25;;;;;;;6.30;2.73;;;;;;;-1.63;100.00;97758.19;5050716;28;20261;-83
2022/01/22 02:42:52;;;;;;;6.17;2.57;;;;;;;-1.66;100.00;97754.94;5044129;28;20202;-82
2022/01/22 02:45:23;;;;;;;4.37;2.43;;;;;;;-1.62;100.00;97751.09;5063271;28;20206;-83
2022/01/22 02:47:50;;;;;;;3.77;2.00;;;;;;;-1.60;100.00;97754.44;5047565;28;20222;-84
2022/01/22 02:50:19;;;;;;;3.37;2.20;;;;;;;-1.47;100.00;97757.00;5062188;28;20288;-84
2022/01/22 02:52:48;;;;;;;3.67;2.23;;;;;;;-1.50;100.00;97752.75;5046542;28;20216;-84
2022/01/22 02:55:15;;;;;;;4.10;2.23;;;;;;;-1.50;100.00;97757.22;5075882;28;20258;-83
2022/01/22 02:57:45;;;;;;;5.20;2.27;;;;;;;-1.44;100.00;97762.88;5060699;28;20213;-82
2022/01/22 03:00:18;;;;;;;3.20;2.03;;;;;;;-1.39;100.00;97765.16;5061243;28;20213;-83
2022/01/22 03:02:47;;;;;;;3.33;2.10;;;;;;;-1.45;100.00;97763.84;5050190;28;20509;-85
2022/01/22 03:05:14;;;;;;;3.90;2.30;;;;;;;-1.43;100.00;97767.22;5049093;28;20216;-82
2022/01/22 03:07:44;;;;;;;8.20;2.70;;;;;;;-1.46;100.00;97763.97;5048460;28;20229;-83
2022/01/22 03:10:15;;;;;;;2.57;2.03;;;;;;;-1.52;100.00;97766.13;5052286;28;20237;-84
2022/01/22 03:13:05;;;;;;;3.63;1.97;;;;;;;-1.44;100.00;97772.63;5044604;28;20213;-82
2022/01/22 03:15:48;;;;;;;2.83;2.13;;;;;;;-1.40;100.00;97766.13;5058718;28;20213;-83
2022/01/22 03:18:20;;;;;;;3.80;2.13;;;;;;;-1.38;100.00;97773.00;5039567;28;20211;-83
2022/01/22 03:21:04;;;;;;;6.20;2.57;;;;;;;-1.31;100.00;97773.34;5048897;28;20524;-84
2022/01/22 03:29:05;;;;;;;3.97;2.10;;;;;;;-1.42;100.00;97776.84;5061909;28;20221;-83
2022/01/22 03:31:33;;;;;;;5.50;2.40;;;;;;;-1.38;100.00;97770.34;5046131;28;20208;-83
2022/01/22 03:34:00;;;;;;;4.33;2.43;;;;;;;-1.45;100.00;97765.66;5060778;28;20197;-83
2022/01/22 03:36:32;;;;;;;4.07;2.30;;;;;;;-1.44;100.00;97762.88;5063743;28;20201;-82
2022/01/22 03:39:00;;;;;;;5.10;3.00;;;;;;;-1.42;100.00;97760.94;5065571;28;20204;-83
2022/01/22 03:41:28;;;;;;;3.60;2.43;;;;;;;-1.39;100.00;97766.00;5064737;28;20205;-83
2022/01/22 03:43:57;;;;;;;5.03;2.30;;;;;;;-1.31;100.00;97768.06;5060572;28;20205;-82
2022/01/22 03:46:24;;;;;;;2.80;2.13;;;;;;;-1.30;100.00;97767.09;5047208;28;20292;-84
2022/01/22 03:48:53;;;;;;;4.57;2.80;;;;;;;-1.24;100.00;97774.53;5048739;28;20220;-85
2022/01/22 03:51:20;;;;;;;3.27;2.03;;;;;;;-1.22;100.00;97762.03;5060864;28;20272;-84
2022/01/22 03:53:48;;;;;;;4.17;2.13;;;;;;;-1.14;100.00;97767.56;5069043;28;20189;-84
2022/01/22 03:56:16;;;;;;;3.63;2.20;;;;;;;-1.11;100.00;97754.06;5048773;28;20221;-83
2022/01/22 03:59:07;;;;;;;2.80;2.07;;;;;;;-1.04;100.00;97749.09;5065362;28;20210;-84
2022/01/22 04:04:21;;;;;;;2.77;2.03;;;;;;;-0.95;100.00;97762.44;5049026;28;20197;-82
2022/01/22 04:09:41;;;;;;;4.20;2.83;;;;;;;-0.91;100.00;97768.34;5059628;28;20233;-82
2022/01/22 04:12:11;;;;;;;5.33;2.20;;;;;;;-0.93;100.00;97764.97;5050894;28;20206;-83
2022/01/22 04:14:46;;;;;;;2.90;2.10;;;;;;;-0.90;100.00;97768.22;5064878;28;20295;-83
2022/01/22 04:17:24;;;;;;;2.57;1.87;;;;;;;-0.91;100.00;97765.69;5059397;28;20208;-83
2022/01/22 04:25:25;;;;;;;3.10;2.00;;;;;;;-1.02;100.00;97771.84;5072295;28;20224;-85
2022/01/22 04:27:53;;;;;;;4.93;2.10;;;;;;;-0.96;100.00;97762.56;5055365;28;20233;-83
2022/01/22 04:30:22;;;;;;;4.87;2.23;;;;;;;-0.95;100.00;97765.09;5058656;28;20206;-82
2022/01/22 04:32:50;;;;;;;4.63;2.30;;;;;;;-0.90;100.00;97765.56;5058930;28;20206;-82
2022/01/22 04:35:19;;;;;;;3.37;2.10;;;;;;;-0.90;100.00;97754.13;5049154;28;20221;-83
2022/01/22 04:37:46;;;;;;;3.73;2.03;;;;;;;-0.87;100.00;97753.88;5040606;28;20210;-83
2022/01/22 04:40:14;;;;;;;2.80;1.80;;;;;;;-0.67;100.00;97762.81;5062423;28;20301;-83
2022/01/22 04:42:42;;;;;;;2.93;1.90;;;;;;;-0.70;100.00;97760.44;5051033;28;20266;-83
2022/01/22 04:45:18;;;;;;;3.30;2.00;;;;;;;-0.68;100.00;97759.34;5050122;28;20227;-84
2022/01/22 04:47:54;;;;;;;6.53;2.30;;;;;;;-0.69;100.00;97751.53;5054998;28;20317;-83
2022/01/22 04:55:52;;;;;;;3.87;2.23;;;;;;;-0.66;100.00;97761.88;5070400;28;20214;-84
2022/01/22 04:58:19;;;;;;;3.30;2.20;;;;;;;-0.65;100.00;97752.94;5060551;28;20225;-84
2022/01/22 05:00:47;;;;;;;3.27;2.20;;;;;;;-0.69;100.00;97749.72;5043303;28;20210;-83
2022/01/22 05:03:41;;;;;;;3.60;2.40;;;;;;;-0.66;100.00;97753.91;5037358;28;20205;-84
2022/01/22 05:06:26;;;;;;;5.53;2.87;;;;;;;-0.69;100.00;97748.88;5059680;28;20260;-84
2022/01/22 05:09:13;;;;;;;3.63;2.40;;;;;;;-0.74;100.00;97740.44;5041540;28;20244;-82
2022/01/22 05:11:53;;;;;;;3.73;2.47;;;;;;;-0.66;100.00;97730.03;5046799;28;20358;-85
2022/01/22 05:14:20;;;;;;;2.93;2.13;;;;;;;-0.69;100.00;97723.19;5061969;28;20217;-83
2022/01/22 05:16:47;;;;;;;6.53;2.73;;;;;;;-0.84;100.00;97717.31;5061575;28;20194;-83
2022/01/22 05:19:21;;;;;;;6.07;2.20;;;;;;;-0.84;100.00;97717.31;5046928;28;20205;-82
2022/01/22 05:21:51;;;;;;;8.20;2.63;;;;;;;-0.88;100.00;97709.75;5059967;28;20217;-82
2022/01/22 05:24:23;;;;;;;5.40;2.40;;;;;;;-0.89;100.00;97695.66;5058964;28;20201;-82
2022/01/22 05:27:16;;;;;;;3.83;2.30;;;;;;;-0.86;100.00;97694.56;5071768;28;20193;-84
2022/01/22 05:30:03;;;;;;;3.60;2.30;;;;;;;-0.80;100.00;97700.19;5045984;28;20209;-83
2022/01/22 05:33:17;;;;;;;4.37;2.23;;;;;;;-0.73;100.00;97700.53;5039159;28;20213;-84
2022/01/22 05:38:56;;;;;;;3.30;2.50;;;;;;;-0.69;100.00;97688.72;5056764;28;20202;-83
2022/01/22 05:41:23;;;;;;;4.00;2.43;;;;;;;-0.68;100.00;97687.72;5056259;28;20202;-82
2022/01/22 05:43:50;;;;;;;4.17;2.20;;;;;;;-0.67;100.00;97685.91;5041734;28;20209;-84
2022/01/22 05:46:17;;;;;;;6.07;2.87;;;;;;;-0.61;100.00;97696.03;5045298;28;20209;-85
2022/01/22 05:48:46;;;;;;;4.37;2.77;;;;;;;-0.63;100.00;97690.00;5058895;28;20295;-83
2022/01/22 05:51:16;;;;;;;4.63;3.20;;;;;;;-0.61;100.00;97699.53;5047234;28;20295;-82
2022/01/22 05:53:56;;;;;;;5.30;3.10;;;;;;;-0.56;100.00;97707.94;5058581;28;20210;-82
2022/01/22 06:01:53;;;;;;;4.97;2.53;;;;;;;-0.42;100.00;97726.19;5059464;28;20237;-83
2022/01/22 06:04:23;;;;;;;9.67;2.90;;;;;;;-0.36;100.00;97732.81;5067926;28;20272;-83
2022/01/22 06:06:59;;;;;;;4.10;2.37;;;;;;;-0.20;100.00;97735.84;5066198;28;20228;-82
2022/01/22 06:09:27;;;;;;;4.30;2.67;;;;;;;-0.25;100.00;97730.06;5062302;28;20222;-82
2022/01/22 06:11:57;;;;;;;5.23;2.80;;;;;;;-0.28;100.00;97735.66;5051892;28;20220;-85
2022/01/22 06:14:31;;;;;;;4.57;2.87;;;;;;;-0.36;100.00;97740.75;5062117;28;20273;-82
2022/01/22 06:16:59;;;;;;;6.97;2.70;;;;;;;-0.44;100.00;97743.22;5060466;28;20305;-83
2022/01/22 06:19:31;;;;;;;4.40;2.83;;;;;;;-0.53;100.00;97734.22;5051579;28;20202;-82
2022/01/22 06:22:01;;;;;;;6.90;3.43;;;;;;;-0.54;100.00;97731.69;5049651;28;20212;-82
2022/01/22 06:24:29;;;;;;;5.27;3.40;;;;;;;-0.58;100.00;97738.19;5059477;28;20205;-83
2022/01/22 06:26:56;;;;;;;3.87;3.03;;;;;;;-0.62;100.00;97744.75;5055820;28;20208;-83
2022/01/22 06:29:23;;;;;;;5.00;3.20;;;;;;;-0.63;100.00;97754.50;5048350;28;20309;-82
2022/01/22 06:31:50;;;;;;;5.07;3.07;;;;;;;-0.60;100.00;97761.38;5056517;28;20225;-83
2022/01/22 06:34:19;;;;;;;5.73;2.93;;;;;;;-0.56;100.00;97763.63;5068314;28;20231;-83
2022/01/22 06:36:46;;;;;;;3.77;3.00;;;;;;;-0.54;100.00;97768.81;5047013;28;20201;-82
2022/01/22 06:39:17;;;;;;;3.63;2.47;;;;;;;-0.55;100.00;97772.44;5063159;28;20209;-83
2022/01/22 06:41:55;;;;;;;6.17;3.13;;;;;;;-0.54;100.00;97774.97;5064681;28;20206;-82
2022/01/22 06:44:54;;;;;;;3.20;2.57;;;;;;;-0.53;100.00;97775.81;5026678;28;20613;-82
2022/01/22 06:47:41;;;;;;;4.57;3.03;;;;;;;-0.51;100.00;97779.19;5055493;28;20206;-82
2022/01/22 06:50:09;;;;;;;4.80;3.00;;;;;;;-0.49;100.00;97793.16;5062393;28;20216;-82
2022/01/22 06:52:42;;;;;;;5.33;2.80;;;;;;;-0.52;100.00;97780.16;5060473;28;20198;-82
2022/01/22 06:55:20;;;;;;;4.83;2.60;;;;;;;-0.47;100.00;97796.53;5054779;28;20224;-83
2022/01/22 06:57:48;;;;;;;4.17;2.70;;;;;;;-0.51;100.00;97781.84;5045707;28;20500;-83
2022/01/22 07:00:26;;;;;;;6.30;2.70;;;;;;;-0.47;100.00;97801.84;5047244;28;20300;-82
2022/01/22 07:03:03;;;;;;;5.63;2.93;;;;;;;-0.42;100.00;97807.59;5048090;28;20201;-83
2022/01/22 07:05:33;;;;;;;4.03;2.37;;;;;;;-0.44;100.00;97806.91;5066944;28;20207;-84
2022/01/22 07:08:05;;;;;;;5.23;2.87;;;;;;;-0.42;100.00;97804.94;5047464;28;20229;-85
2022/01/22 07:10:37;;;;;;;4.40;3.10;;;;;;;-0.43;100.00;97816.56;5059054;28;20233;-82
2022/01/22 07:13:05;;;;;;;9.33;3.50;;;;;;;-0.36;100.00;97830.16;5055553;28;20297;-83
2022/01/22 07:15:32;;;;;;;5.03;2.87;;;;;;;-0.40;100.00;97829.56;5059138;28;20206;-82
2022/01/22 07:18:07;;;;;;;4.77;2.93;;;;;;;-0.49;100.00;97831.16;5049214;28;20213;-84
2022/01/22 07:20:39;;;;;;;8.63;3.43;;;;;;;-0.43;100.00;97840.44;5058512;28;20236;-81
2022/01/22 07:23:16;;;;;;;5.43;2.80;;;;;;;-0.42;100.00;97844.75;5059807;28;20278;-83
2022/01/22 07:25:50;;;;;;;3.90;2.77;;;;;;;-0.38;100.00;97848.84;5053424;28;20201;-82
2022/01/22 07:28:32;;;;;;;6.50;2.97;;;;;;;-0.36;100.00;97844.28;5055516;28;20221;-82
2022/01/22 07:31:00;;;;;;;6.63;3.53;;;;;;;-0.37;100.00;97855.84;5058601;28;20618;-83
2022/01/22 07:33:29;;;;;;;4.57;3.30;;;;;;;-0.38;100.00;97851.50;5044709;28;20225;-81
2022/01/22 07:35:56;;;;;;;6.50;3.03;;;;;;;-0.36;100.00;97862.00;5043356;28;20293;-82
2022/01/22 07:38:23;;;;;;;7.67;3.33;;;;;;;-0.30;100.00;97858.84;5062194;28;20222;-85
2022/01/22 07:40:52;;;;;;;8.07;3.23;;;;;;;-0.30;100.00;97861.50;5056268;28;20259;-82
2022/01/22 07:43:31;;;;;;;5.90;3.00;;;;;;;-0.19;100.00;97875.59;5053021;28;20232;-82
2022/01/22 07:46:17;;;;;;;4.23;2.90;;;;;;;-0.22;100.00;97881.13;5060753;28;20255;-83
2022/01/22 07:48:50;;;;;;;5.77;3.30;;;;;;;-0.23;100.00;97883.91;5064457;28;20244;-82
2022/01/22 07:51:20;;;;;;;7.20;4.60;;;;;;;-0.22;100.00;97886.44;5053733;28;20214;-83
2022/01/22 07:53:47;;;;;;;5.47;2.87;;;;;;;-0.24;100.00;97888.38;5060262;28;20198;-82
2022/01/22 07:56:20;;;;;;;5.17;3.00;;;;;;;-0.25;100.00;97884.03;5061411;28;20198;-84
2022/01/22 07:58:47;;;;;;;5.63;3.33;;;;;;;-0.23;100.00;97883.91;5037412;28;20201;-82
2022/01/22 08:01:15;;;;;;;5.23;3.53;;;;;;;-0.21;100.00;97879.31;5057051;28;20215;-83
2022/01/22 08:04:23;;;;;;;6.60;4.23;;;;;;;-0.21;100.00;97879.31;5018026;28;20645;-81
2022/01/22 08:06:58;;;;;;;9.43;3.57;;;;;;;-0.18;100.00;97889.69;5058129;28;20308;-82
2022/01/22 08:09:45;;;;;;;8.57;5.63;;;;;;;-0.20;100.00;97889.81;5054578;28;20236;-82
2022/01/22 08:12:19;;;;;;;9.40;4.27;;;;;;;-0.18;100.00;97887.03;5052281;28;20213;-83
2022/01/22 08:14:48;;;;;;;7.63;3.47;;;;;;;-0.21;100.00;97888.13;5038145;28;20195;-82
2022/01/22 08:17:15;;;;;;;7.50;3.47;;;;;;;-0.20;100.00;97889.81;5054880;28;20204;-83
2022/01/22 08:19:43;;;;;;;5.80;3.90;;;;;;;-0.22;100.00;97883.78;5055711;28;20274;-83
2022/01/22 08:22:31;;;;;;;7.90;4.30;;;;;;;-0.17;100.00;97884.25;5045713;28;20251;-82
2022/01/22 08:25:17;;;;;;;10.30;4.10;;;;;;;-0.19;100.00;97867.63;5058878;28;20203;-84
2022/01/22 08:30:35;;;;;;;4.70;3.13;;;;;;;-0.10;100.00;97868.66;5049301;28;20210;-82
2022/01/22 08:33:31;;;;;;;8.40;3.17;;;;;;;-0.13;100.00;97861.78;5054881;28;20324;-82
2022/01/22 08:35:56;;;;;;;4.43;3.00;;;;;;;0.00;100.00;97865.09;5040684;28;20201;-86
2022/01/22 08:38:26;;;;;;;6.30;2.93;;;;;;;0.02;98.01;97858.81;5038615;28;20223;-82
2022/01/22 08:40:54;;;;;;;4.80;2.60;;;;;;;0.04;95.87;97859.53;5052578;28;20232;-84
2022/01/22 08:43:23;;;;;;;5.00;3.10;;;;;;;0.03;95.70;97857.84;5046280;28;20212;-82
2022/01/22 08:45:52;;;;;;;10.63;3.37;;;;;;;0.12;96.15;97857.09;5043608;28;20209;-85
2022/01/22 08:48:21;;;;;;;7.50;2.93;;;;;;;0.13;95.08;97853.47;5050323;28;20204;-82
2022/01/22 08:50:54;;;;;;;4.47;2.80;;;;;;;0.20;94.76;97852.81;5052036;28;20202;-82
2022/01/22 08:53:21;;;;;;;8.07;3.20;;;;;;;0.21;93.38;97835.91;5056650;28;20222;-82
2022/01/22 08:55:48;;;;;;;6.20;3.20;;;;;;;0.25;92.18;97826.72;5044800;28;20232;-85
2022/01/22 08:58:16;;;;;;;7.10;3.73;;;;;;;0.36;91.81;97839.06;5056668;28;20206;-82
2022/01/22 09:00:59;;;;;;;5.40;3.27;;;;;;;0.43;91.80;97839.38;5050027;28;20213;-83
2022/01/22 09:03:30;;;;;;;8.10;3.77;;;;;;;0.39;91.59;97833.50;5049991;28;20296;-84
2022/01/22 09:06:36;;;;;;;11.93;6.07;;;;;;;0.43;92.93;97840.22;4993365;28;20239;-82
2022/01/22 09:09:30;;;;;;;8.97;4.20;;;;;;;0.39;93.61;97846.78;4960856;28;20227;-85
2022/01/22 09:12:02;;;;;;;8.57;4.20;;;;;;;0.37;93.99;97851.38;5015552;28;20194;-81
2022/01/22 09:14:52;;;;;;;13.87;4.47;;;;;;;0.37;92.96;97846.91;5039455;28;20256;-82
2022/01/22 09:17:21;;;;;;;11.20;5.20;;;;;;;0.38;93.45;97848.59;5035673;28;20273;-81
2022/01/22 09:19:49;;;;;;;9.40;5.80;;;;;;;0.44;94.27;97860.50;5047121;28;20233;-84
2022/01/22 09:22:19;;;;;;;10.33;5.57;;;;;;;0.46;94.99;97866.56;5045949;28;20504;-83
2022/01/22 09:24:49;;;;;;;9.67;4.17;;;;;;;0.56;95.27;97872.78;5038424;28;20272;-83
2022/01/22 09:27:18;;;;;;;6.97;3.97;;;;;;;0.58;92.76;97870.00;5041759;28;20300;-82
2022/01/22 09:29:47;;;;;;;8.37;4.07;;;;;;;0.65;93.49;97872.00;5053269;28;20229;-82
2022/01/22 09:32:16;;;;;;;17.10;4.97;;;;;;;0.75;93.58;97890.66;5050299;28;20210;-83
2022/01/22 09:35:13;;;;;;;17.60;3.80;;;;;;;0.85;93.26;97882.75;5011504;28;20212;-84
2022/01/22 09:37:49;;;;;;;12.43;3.90;;;;;;;0.88;92.38;97875.31;5053576;28;20379;-84
2022/01/22 09:40:37;;;;;;;11.37;3.97;;;;;;;0.88;92.19;97867.34;5031811;28;20197;-83
2022/01/22 09:43:36;;;;;;;11.63;4.00;;;;;;;0.95;91.06;97878.28;5035039;28;20211;-83
2022/01/22 09:46:27;;;;;;;11.73;4.13;;;;;;;0.97;91.27;97871.88;5015211;28;20222;-84
2022/01/22 09:49:03;;;;;;;12.53;4.30;;;;;;;1.02;91.17;97864.31;5047461;28;20228;-84
2022/01/22 09:51:50;;;;;;;6.73;3.50;;;;;;;1.07;90.52;97864.78;5036464;28;20254;-83
2022/01/22 09:54:40;;;;;;;7.63;3.40;;;;;;;1.11;89.81;97863.50;5032559;28;20216;-82
2022/01/22 09:57:35;;;;;;;7.77;4.23;;;;;;;1.11;89.50;97857.34;5017983;28;20334;-82
2022/01/22 10:00:29;;;;;;;6.17;3.50;;;;;;;1.18;89.47;97869.16;4995261;28;20243;-82
2022/01/22 10:03:16;;;;;;;8.30;3.73;;;;;;;1.19;89.61;97851.38;5038431;28;20211;-83
2022/01/22 10:05:48;;;;;;;7.60;3.93;;;;;;;1.27;89.41;97865.69;5036736;28;20236;-83
2022/01/22 10:08:43;;;;;;;9.60;4.53;;;;;;;1.36;89.57;97872.81;5028955;28;20210;-84
2022/01/22 10:11:22;;;;;;;6.23;3.70;;;;;;;1.39;88.97;97871.72;5053376;28;20228;-82
2022/01/22 10:14:27;;;;;;;5.37;3.30;;;;;;;1.43;88.92;97876.66;5024309;28;20205;-82
2022/01/22 10:16:54;;;;;;;6.37;3.60;;;;;;;1.47;88.86;97880.72;5041512;28;20300;-82
2022/01/22 10:19:24;;;;;;;10.17;3.40;;;;;;;1.47;87.57;97872.72;5041411;28;20253;-82
2022/01/22 10:21:57;;;;;;;13.10;4.20;;;;;;;1.42;86.72;97882.13;5041031;28;23644;-82
2022/01/22 10:24:35;;;;;;;5.73;3.20;;;;;;;1.49;86.62;97868.13;5056528;28;20303;-83
2022/01/22 10:27:23;;;;;;;7.37;3.70;;;;;;;1.58;87.12;97877.09;5050157;28;20278;-85
2022/01/22 10:29:54;;;;;;;15.53;3.93;;;;;;;1.59;87.13;97853.97;5038081;28;20274;-84
2022/01/22 10:32:27;;;;;;;11.00;3.30;;;;;;;1.64;86.78;97857.91;5049663;28;20224;-83
2022/01/22 10:35:31;;;;;;;6.10;3.67;;;;;;;1.89;89.49;97856.53;5052825;28;20204;-82
2022/01/22 10:38:18;;;;;;;20.43;4.90;;;;;;;2.20;89.87;97850.09;5057184;28;20394;-84
2022/01/22 10:40:47;;;;;;;9.93;3.43;;;;;;;2.34;88.22;97835.47;5040857;28;20205;-82
2022/01/22 10:43:22;;;;;;;9.53;4.10;;;;;;;2.63;87.99;97848.75;5037091;28;20220;-82
2022/01/22 10:46:08;;;;;;;5.90;3.50;;;;;;;2.68;84.17;97830.50;5056822;28;20211;-83
2022/01/22 10:48:38;;;;;;;9.10;4.40;;;;;;;2.84;85.61;97825.38;5040681;28;20209;-83
2022/01/22 10:51:08;;;;;;;5.47;3.30;;;;;;;2.84;81.40;97812.03;5056207;28;20280;-83
2022/01/22 10:53:44;;;;;;;9.47;3.80;;;;;;;2.73;82.21;97814.88;5046022;28;20214;-83
2022/01/22 10:56:16;;;;;;;7.67;4.40;;;;;;;2.70;82.03;97811.69;5042895;28;20221;-86
2022/01/22 10:59:06;;;;;;;17.17;5.03;;;;;;;2.61;81.64;97818.72;5048191;28;20216;-83
2022/01/22 11:01:47;;;;;;;9.87;4.13;;;;;;;2.48;82.64;97813.69;5055355;28;20220;-83
2022/01/22 11:04:17;;;;;;;16.53;5.17;;;;;;;2.51;84.55;97816.09;5058243;28;20210;-83
2022/01/22 11:06:51;;;;;;;14.73;6.60;;;;;;;2.54;84.68;97822.97;5056339;28;20210;-83
2022/01/22 11:09:19;;;;;;;17.23;5.27;;;;;;;2.57;83.52;97812.81;5072355;28;20213;-83
2022/01/22 11:11:49;;;;;;;12.33;4.63;;;;;;;2.68;83.84;97814.50;5058693;28;20233;-82
2022/01/22 11:14:17;;;;;;;11.17;3.50;;;;;;;2.63;85.15;97817.59;5047804;28;20281;-83
2022/01/22 11:16:47;;;;;;;10.77;4.17;;;;;;;2.65;84.50;97814.75;5069865;28;20332;-83
2022/01/22 11:19:19;;;;;;;10.93;3.50;;;;;;;2.61;85.11;97818.72;5037918;28;20210;-84
2022/01/22 11:21:49;;;;;;;12.43;3.60;;;;;;;2.56;84.58;97827.13;5065403;28;20309;-81
2022/01/22 11:24:18;;;;;;;8.97;3.67;;;;;;;2.60;84.92;97820.53;5063051;28;20284;-85
2022/01/22 11:26:50;;;;;;;6.53;3.50;;;;;;;2.61;84.59;97800.91;5054122;28;20221;-82
2022/01/22 11:29:18;;;;;;;11.80;4.60;;;;;;;2.72;83.65;97804.38;5052525;28;20209;-84
2022/01/22 11:31:47;;;;;;;11.00;3.60;;;;;;;2.78;83.43;97804.63;5076405;28;20220;-85
2022/01/22 11:34:17;;;;;;;9.07;3.40;;;;;;;2.75;82.02;97788.91;5064385;28;20222;-84
2022/01/22 11:36:53;;;;;;;10.23;4.20;;;;;;;2.82;82.54;97800.66;5060632;28;20581;-83
2022/01/22 11:39:24;;;;;;;10.63;4.40;;;;;;;2.88;83.72;97793.94;5038490;28;20220;-83
2022/01/22 11:41:55;;;;;;;13.70;4.40;;;;;;;2.93;83.58;97792.47;5063516;28;20206;-82
2022/01/22 11:44:27;;;;;;;7.57;4.37;;;;;;;2.92;82.57;97782.78;5045808;28;20233;-82
2022/01/22 11:47:09;;;;;;;8.40;4.93;;;;;;;2.92;82.34;97782.78;5059844;28;20202;-83
2022/01/22 11:49:36;;;;;;;9.73;4.03;;;;;;;2.91;82.52;97781.13;5060579;28;20344;-82
2022/01/22 11:52:25;;;;;;;6.83;4.27;;;;;;;2.94;81.97;97778.16;5059333;28;20380;-83
2022/01/22 11:54:54;;;;;;;10.60;4.43;;;;;;;2.99;82.84;97786.56;5060883;28;20210;-85
2022/01/22 11:57:23;;;;;;;7.03;4.77;;;;;;;3.01;84.49;97787.25;5066382;28;20314;-82
2022/01/22 12:00:18;;;;;;;8.37;4.40;;;;;;;2.92;82.03;97779.28;5063642;28;20199;-83
2022/01/22 12:02:46;;;;;;;7.87;4.33;;;;;;;3.09;84.73;97788.34;5062338;28;20213;-82
2022/01/22 12:05:13;;;;;;;8.47;3.93;;;;;;;3.00;82.95;97788.22;5053912;28;20206;-84
2022/01/22 12:07:57;;;;;;;8.80;4.33;;;;;;;3.08;83.02;97779.47;5035876;28;20233;-85
2022/01/22 12:10:38;;;;;;;7.97;4.10;;;;;;;2.99;81.24;97786.56;5066383;28;20245;-84
2022/01/22 12:16:14;;;;;;;11.37;4.67;;;;;;;2.89;83.15;97780.41;5056983;28;20205;-83
2022/01/22 12:18:48;;;;;;;15.57;5.37;;;;;;;2.85;82.82;97772.88;5041593;28;20235;-83
2022/01/22 12:21:33;;;;;;;9.37;5.00;;;;;;;2.87;82.88;97776.22;5044778;28;20198;-84
2022/01/22 12:24:01;;;;;;;10.40;4.13;;;;;;;2.89;83.00;97776.94;5056126;28;20266;-84
2022/01/22 12:26:46;;;;;;;8.77;4.57;;;;;;;2.90;83.26;97776.75;5063206;28;20226;-84
2022/01/22 12:29:35;;;;;;;8.37;4.00;;;;;;;2.82;83.17;97776.66;5059534;28;20302;-85
2022/01/22 12:32:15;;;;;;;10.63;3.77;;;;;;;2.82;83.45;97776.66;5057298;28;20300;-84
2022/01/22 12:34:57;;;;;;;9.67;3.73;;;;;;;2.88;82.46;97781.44;5042356;28;20205;-84
2022/01/22 12:37:25;;;;;;;9.50;3.93;;;;;;;2.91;81.60;97785.59;5062495;28;20320;-85
2022/01/22 12:39:55;;;;;;;5.87;3.93;;;;;;;2.96;82.14;97786.88;5037644;28;20216;-83
2022/01/22 12:42:32;;;;;;;5.20;3.23;;;;;;;2.91;82.53;97791.78;5065705;28;20210;-85
2022/01/22 12:45:03;;;;;;;7.73;3.20;;;;;;;2.85;82.11;97786.19;5046868;28;20233;-84
2022/01/22 12:47:30;;;;;;;8.83;3.67;;;;;;;2.83;82.18;97793.50;5044623;28;20217;-86
2022/01/22 12:50:03;;;;;;;4.80;3.47;;;;;;;2.87;81.75;97798.41;5049571;28;20231;-83
2022/01/22 12:52:30;;;;;;;5.43;3.77;;;;;;;2.88;81.28;97805.44;5042954;28;20496;-85
2022/01/22 12:54:59;;;;;;;5.50;2.97;;;;;;;2.89;81.52;97801.75;5055520;28;20235;-83
2022/01/22 12:57:30;;;;;;;7.00;3.33;;;;;;;2.96;80.85;97802.88;5054383;28;20259;-84
2022/01/22 13:00:07;;;;;;;13.23;4.03;;;;;;;2.98;81.82;97798.22;5055632;28;20214;-84
2022/01/22 13:02:41;;;;;;;6.70;3.13;;;;;;;2.99;80.25;97789.22;5053331;28;20205;-83